sensor_id;sensor_type;location;lat;lon;timestamp;temperature;humidity
52211;DHT22;38179;52.756;6.906;2022-11-15T00:00:53;6.90;99.90
52211;DHT22;38179;52.756;6.906;2022-11-15T00:03:24;7.00;99.90
52211;DHT22;38179;52.756;6.906;2022-11-15T00:05:51;7.00;99.90
52211;DHT22;38179;52.756;6.906;2022-11-15T00:08:17;7.00;99.90
52211;DHT22;38179;52.756;6.906;2022-11-15T00:10:43;7.00;99.90
52211;DHT22;38179;52.756;6.906;2022-11-15T00:13:12;7.10;99.90
52211;DHT22;38179;52.756;6.906;2022-11-15T00:15:40;7.10;99.90
52211;DHT22;38179;52.756;6.906;2022-11-15T00:18:11;7.10;99.90
52211;DHT22;38179;52.756;6.906;2022-11-15T00:20:37;7.10;99.90
52211;DHT22;38179;52.756;6.906;2022-11-15T00:23:04;7.20;99.90
52211;DHT22;38179;52.756;6.906;2022-11-15T00:25:31;7.20;99.90
52211;DHT22;38179;52.756;6.906;2022-11-15T00:27:57;7.20;99.90
52211;DHT22;38179;52.756;6.906;2022-11-15T00:30:24;7.20;99.90
52211;DHT22;38179;52.756;6.906;2022-11-15T00:32:50;7.20;99.90
52211;DHT22;38179;52.756;6.906;2022-11-15T00:35:16;7.30;99.90
52211;DHT22;38179;52.756;6.906;2022-11-15T00:37:42;7.30;99.90
52211;DHT22;38179;52.756;6.906;2022-11-15T00:40:10;7.30;99.90
52211;DHT22;38179;52.756;6.906;2022-11-15T00:42:38;7.30;99.90
52211;DHT22;38179;52.756;6.906;2022-11-15T00:45:04;7.30;99.90
52211;DHT22;38179;52.756;6.906;2022-11-15T00:47:30;7.30;99.90
52211;DHT22;38179;52.756;6.906;2022-11-15T00:49:56;7.30;99.90
52211;DHT22;38179;52.756;6.906;2022-11-15T00:52:22;7.40;99.90
52211;DHT22;38179;52.756;6.906;2022-11-15T00:54:48;7.40;99.90
52211;DHT22;38179;52.756;6.906;2022-11-15T00:57:14;7.40;99.90
52211;DHT22;38179;52.756;6.906;2022-11-15T00:59:39;7.40;99.90
52211;DHT22;38179;52.756;6.906;2022-11-15T01:02:05;7.40;99.90
52211;DHT22;38179;52.756;6.906;2022-11-15T01:04:31;7.40;99.90
52211;DHT22;38179;52.756;6.906;2022-11-15T01:06:57;7.40;99.90
52211;DHT22;38179;52.756;6.906;2022-11-15T01:09:23;7.40;99.90
52211;DHT22;38179;52.756;6.906;2022-11-15T01:11:49;7.40;99.90
52211;DHT22;38179;52.756;6.906;2022-11-15T01:14:15;7.40;99.90
52211;DHT22;38179;52.756;6.906;2022-11-15T01:16:42;7.40;99.90
52211;DHT22;38179;52.756;6.906;2022-11-15T01:19:07;7.40;99.90
52211;DHT22;38179;52.756;6.906;2022-11-15T01:21:33;7.40;99.90
52211;DHT22;38179;52.756;6.906;2022-11-15T01:23:59;7.50;99.90
52211;DHT22;38179;52.756;6.906;2022-11-15T01:26:25;7.40;99.90
52211;DHT22;38179;52.756;6.906;2022-11-15T01:28:51;7.50;99.90
52211;DHT22;38179;52.756;6.906;2022-11-15T01:31:20;7.40;99.90
52211;DHT22;38179;52.756;6.906;2022-11-15T01:33:47;7.50;99.90
52211;DHT22;38179;52.756;6.906;2022-11-15T01:36:20;7.50;99.90
52211;DHT22;38179;52.756;6.906;2022-11-15T01:38:52;7.40;99.90
52211;DHT22;38179;52.756;6.906;2022-11-15T01:41:22;7.50;99.90
52211;DHT22;38179;52.756;6.906;2022-11-15T01:43:57;7.50;99.90
52211;DHT22;38179;52.756;6.906;2022-11-15T01:46:35;7.50;99.90
52211;DHT22;38179;52.756;6.906;2022-11-15T01:49:09;7.50;99.90
52211;DHT22;38179;52.756;6.906;2022-11-15T01:51:37;7.50;99.90
52211;DHT22;38179;52.756;6.906;2022-11-15T01:54:10;7.50;99.90
52211;DHT22;38179;52.756;6.906;2022-11-15T01:56:43;7.50;99.90
52211;DHT22;38179;52.756;6.906;2022-11-15T01:59:10;7.50;99.90
52211;DHT22;38179;52.756;6.906;2022-11-15T02:01:37;7.50;99.90
52211;DHT22;38179;52.756;6.906;2022-11-15T02:06:39;7.50;99.90
52211;DHT22;38179;52.756;6.906;2022-11-15T02:09:06;7.50;99.90
52211;DHT22;38179;52.756;6.906;2022-11-15T02:11:32;7.50;99.90
52211;DHT22;38179;52.756;6.906;2022-11-15T02:13:59;7.50;99.90
52211;DHT22;38179;52.756;6.906;2022-11-15T02:19:36;7.50;99.90
52211;DHT22;38179;52.756;6.906;2022-11-15T02:36:00;7.60;99.90
52211;DHT22;38179;52.756;6.906;2022-11-15T02:41:20;7.60;99.90
52211;DHT22;38179;52.756;6.906;2022-11-15T02:46:49;7.60;99.90
52211;DHT22;38179;52.756;6.906;2022-11-15T02:49:34;7.60;99.90
52211;DHT22;38179;52.756;6.906;2022-11-15T02:52:01;7.60;99.90
52211;DHT22;38179;52.756;6.906;2022-11-15T02:54:31;7.60;99.90
52211;DHT22;38179;52.756;6.906;2022-11-15T02:57:04;7.60;99.90
52211;DHT22;38179;52.756;6.906;2022-11-15T03:05:09;7.70;99.90
52211;DHT22;38179;52.756;6.906;2022-11-15T03:10:24;7.70;99.90
52211;DHT22;38179;52.756;6.906;2022-11-15T03:15:40;7.70;99.90
52211;DHT22;38179;52.756;6.906;2022-11-15T03:20:44;7.70;99.90
52211;DHT22;38179;52.756;6.906;2022-11-15T03:23:11;7.70;99.90
52211;DHT22;38179;52.756;6.906;2022-11-15T03:25:41;7.80;99.90
52211;DHT22;38179;52.756;6.906;2022-11-15T03:28:12;7.80;99.90
52211;DHT22;38179;52.756;6.906;2022-11-15T03:30:40;7.80;99.90
52211;DHT22;38179;52.756;6.906;2022-11-15T03:33:08;7.80;99.90
52211;DHT22;38179;52.756;6.906;2022-11-15T03:35:38;7.80;99.90
52211;DHT22;38179;52.756;6.906;2022-11-15T03:38:24;7.80;99.90
52211;DHT22;38179;52.756;6.906;2022-11-15T03:41:12;7.80;99.90
52211;DHT22;38179;52.756;6.906;2022-11-15T03:43:43;7.90;99.90
52211;DHT22;38179;52.756;6.906;2022-11-15T03:46:32;7.90;99.90
52211;DHT22;38179;52.756;6.906;2022-11-15T03:49:15;7.90;99.90
52211;DHT22;38179;52.756;6.906;2022-11-15T03:51:42;7.90;99.90
52211;DHT22;38179;52.756;6.906;2022-11-15T03:54:09;7.90;99.90
52211;DHT22;38179;52.756;6.906;2022-11-15T03:56:37;7.90;99.90
52211;DHT22;38179;52.756;6.906;2022-11-15T03:59:03;7.90;99.90
52211;DHT22;38179;52.756;6.906;2022-11-15T04:01:28;7.90;99.90
52211;DHT22;38179;52.756;6.906;2022-11-15T04:03:54;7.90;99.90
52211;DHT22;38179;52.756;6.906;2022-11-15T04:06:20;8.00;99.90
52211;DHT22;38179;52.756;6.906;2022-11-15T04:08:46;8.00;99.90
52211;DHT22;38179;52.756;6.906;2022-11-15T04:11:12;8.00;99.90
52211;DHT22;38179;52.756;6.906;2022-11-15T04:13:38;8.00;99.90
52211;DHT22;38179;52.756;6.906;2022-11-15T04:16:03;8.00;99.90
52211;DHT22;38179;52.756;6.906;2022-11-15T04:18:29;8.10;99.90
52211;DHT22;38179;52.756;6.906;2022-11-15T04:20:55;8.10;99.90
52211;DHT22;38179;52.756;6.906;2022-11-15T04:23:39;8.10;99.90
52211;DHT22;38179;52.756;6.906;2022-11-15T04:26:40;8.10;99.90
52211;DHT22;38179;52.756;6.906;2022-11-15T04:29:06;8.10;99.90
52211;DHT22;38179;52.756;6.906;2022-11-15T04:31:50;8.20;99.90
52211;DHT22;38179;52.756;6.906;2022-11-15T04:34:16;8.20;99.90
52211;DHT22;38179;52.756;6.906;2022-11-15T04:36:42;8.20;99.90
52211;DHT22;38179;52.756;6.906;2022-11-15T04:39:26;8.20;99.90
52211;DHT22;38179;52.756;6.906;2022-11-15T04:41:52;8.30;99.90
52211;DHT22;38179;52.756;6.906;2022-11-15T04:44:18;8.30;99.90
52211;DHT22;38179;52.756;6.906;2022-11-15T04:46:44;8.30;99.90
52211;DHT22;38179;52.756;6.906;2022-11-15T04:49:10;8.40;99.90
52211;DHT22;38179;52.756;6.906;2022-11-15T04:51:35;8.40;99.90
52211;DHT22;38179;52.756;6.906;2022-11-15T04:54:01;8.40;99.90
52211;DHT22;38179;52.756;6.906;2022-11-15T04:56:27;8.40;99.90
52211;DHT22;38179;52.756;6.906;2022-11-15T04:58:53;8.40;99.90
52211;DHT22;38179;52.756;6.906;2022-11-15T05:01:19;8.40;99.90
52211;DHT22;38179;52.756;6.906;2022-11-15T05:03:45;8.40;99.90
52211;DHT22;38179;52.756;6.906;2022-11-15T05:06:29;8.40;99.90
52211;DHT22;38179;52.756;6.906;2022-11-15T05:08:56;8.50;99.90
52211;DHT22;38179;52.756;6.906;2022-11-15T05:11:22;8.50;99.90
52211;DHT22;38179;52.756;6.906;2022-11-15T05:13:48;8.60;99.90
52211;DHT22;38179;52.756;6.906;2022-11-15T05:16:14;8.60;99.90
52211;DHT22;38179;52.756;6.906;2022-11-15T05:18:40;8.60;99.90
52211;DHT22;38179;52.756;6.906;2022-11-15T05:21:08;8.60;99.90
52211;DHT22;38179;52.756;6.906;2022-11-15T05:23:35;8.70;99.90
52211;DHT22;38179;52.756;6.906;2022-11-15T05:26:02;8.70;99.90
52211;DHT22;38179;52.756;6.906;2022-11-15T05:28:29;8.70;99.90
52211;DHT22;38179;52.756;6.906;2022-11-15T05:31:05;8.80;99.90
52211;DHT22;38179;52.756;6.906;2022-11-15T05:33:32;8.80;99.90
52211;DHT22;38179;52.756;6.906;2022-11-15T05:38:45;8.90;99.90
52211;DHT22;38179;52.756;6.906;2022-11-15T05:41:11;8.90;99.90
52211;DHT22;38179;52.756;6.906;2022-11-15T05:43:39;9.00;99.90
52211;DHT22;38179;52.756;6.906;2022-11-15T05:46:06;9.00;99.90
52211;DHT22;38179;52.756;6.906;2022-11-15T05:48:36;9.00;99.90
52211;DHT22;38179;52.756;6.906;2022-11-15T05:51:03;9.00;99.90
52211;DHT22;38179;52.756;6.906;2022-11-15T05:53:31;9.10;99.90
52211;DHT22;38179;52.756;6.906;2022-11-15T05:55:57;9.10;99.90
52211;DHT22;38179;52.756;6.906;2022-11-15T05:58:23;9.10;99.90
52211;DHT22;38179;52.756;6.906;2022-11-15T06:00:49;9.20;99.90
52211;DHT22;38179;52.756;6.906;2022-11-15T06:03:15;9.20;99.90
52211;DHT22;38179;52.756;6.906;2022-11-15T06:05:41;9.30;99.90
52211;DHT22;38179;52.756;6.906;2022-11-15T06:08:06;9.30;99.90
52211;DHT22;38179;52.756;6.906;2022-11-15T06:10:32;9.30;99.90
52211;DHT22;38179;52.756;6.906;2022-11-15T06:13:00;9.40;99.90
52211;DHT22;38179;52.756;6.906;2022-11-15T06:15:26;9.40;99.90
52211;DHT22;38179;52.756;6.906;2022-11-15T06:17:52;9.40;99.90
52211;DHT22;38179;52.756;6.906;2022-11-15T06:20:23;9.50;99.90
52211;DHT22;38179;52.756;6.906;2022-11-15T06:22:49;9.50;99.90
52211;DHT22;38179;52.756;6.906;2022-11-15T06:25:15;9.50;99.90
52211;DHT22;38179;52.756;6.906;2022-11-15T06:27:41;9.60;99.90
52211;DHT22;38179;52.756;6.906;2022-11-15T06:30:07;9.60;99.90
52211;DHT22;38179;52.756;6.906;2022-11-15T06:32:33;9.60;99.90
52211;DHT22;38179;52.756;6.906;2022-11-15T06:34:59;9.70;99.90
52211;DHT22;38179;52.756;6.906;2022-11-15T06:37:25;9.70;99.90
52211;DHT22;38179;52.756;6.906;2022-11-15T06:39:51;9.80;99.90
52211;DHT22;38179;52.756;6.906;2022-11-15T06:42:16;9.80;99.90
52211;DHT22;38179;52.756;6.906;2022-11-15T06:44:42;9.80;99.90
52211;DHT22;38179;52.756;6.906;2022-11-15T06:47:08;9.80;99.90
52211;DHT22;38179;52.756;6.906;2022-11-15T06:49:34;9.90;99.90
52211;DHT22;38179;52.756;6.906;2022-11-15T06:52:00;9.90;99.90
52211;DHT22;38179;52.756;6.906;2022-11-15T06:54:26;9.90;99.90
52211;DHT22;38179;52.756;6.906;2022-11-15T06:56:51;9.90;99.90
52211;DHT22;38179;52.756;6.906;2022-11-15T06:59:17;9.90;99.90
52211;DHT22;38179;52.756;6.906;2022-11-15T07:01:43;10.00;99.90
52211;DHT22;38179;52.756;6.906;2022-11-15T07:04:09;10.00;99.90
52211;DHT22;38179;52.756;6.906;2022-11-15T07:06:35;10.00;99.90
52211;DHT22;38179;52.756;6.906;2022-11-15T07:09:02;10.10;99.90
52211;DHT22;38179;52.756;6.906;2022-11-15T07:11:28;10.10;99.90
52211;DHT22;38179;52.756;6.906;2022-11-15T07:13:54;10.10;99.90
52211;DHT22;38179;52.756;6.906;2022-11-15T07:16:20;10.10;99.90
52211;DHT22;38179;52.756;6.906;2022-11-15T07:18:46;10.10;99.90
52211;DHT22;38179;52.756;6.906;2022-11-15T07:21:12;10.10;99.90
52211;DHT22;38179;52.756;6.906;2022-11-15T07:23:38;10.10;99.90
52211;DHT22;38179;52.756;6.906;2022-11-15T07:26:05;10.10;99.90
52211;DHT22;38179;52.756;6.906;2022-11-15T07:28:31;10.10;99.90
52211;DHT22;38179;52.756;6.906;2022-11-15T07:30:57;10.10;99.90
52211;DHT22;38179;52.756;6.906;2022-11-15T07:33:23;10.10;99.90
52211;DHT22;38179;52.756;6.906;2022-11-15T07:35:49;10.20;99.90
52211;DHT22;38179;52.756;6.906;2022-11-15T07:38:15;10.20;99.90
52211;DHT22;38179;52.756;6.906;2022-11-15T07:40:45;10.30;99.90
52211;DHT22;38179;52.756;6.906;2022-11-15T07:43:11;10.20;99.90
52211;DHT22;38179;52.756;6.906;2022-11-15T07:45:44;10.30;99.90
52211;DHT22;38179;52.756;6.906;2022-11-15T07:48:11;10.30;99.90
52211;DHT22;38179;52.756;6.906;2022-11-15T07:50:40;10.40;99.90
52211;DHT22;38179;52.756;6.906;2022-11-15T07:53:05;10.40;99.90
52211;DHT22;38179;52.756;6.906;2022-11-15T07:55:31;10.40;99.90
52211;DHT22;38179;52.756;6.906;2022-11-15T07:58:04;10.40;99.90
52211;DHT22;38179;52.756;6.906;2022-11-15T08:00:31;10.40;99.90
52211;DHT22;38179;52.756;6.906;2022-11-15T08:03:10;10.40;99.90
52211;DHT22;38179;52.756;6.906;2022-11-15T08:05:38;10.50;99.90
52211;DHT22;38179;52.756;6.906;2022-11-15T08:08:04;10.50;99.90
52211;DHT22;38179;52.756;6.906;2022-11-15T08:10:31;10.50;99.90
52211;DHT22;38179;52.756;6.906;2022-11-15T08:13:02;10.50;99.90
52211;DHT22;38179;52.756;6.906;2022-11-15T08:15:29;10.50;99.90
52211;DHT22;38179;52.756;6.906;2022-11-15T08:18:03;10.50;99.90
52211;DHT22;38179;52.756;6.906;2022-11-15T08:20:30;10.50;99.90
52211;DHT22;38179;52.756;6.906;2022-11-15T08:22:57;10.60;99.90
52211;DHT22;38179;52.756;6.906;2022-11-15T08:25:23;10.50;99.90
52211;DHT22;38179;52.756;6.906;2022-11-15T08:27:56;10.60;99.90
52211;DHT22;38179;52.756;6.906;2022-11-15T08:30:22;10.60;99.90
52211;DHT22;38179;52.756;6.906;2022-11-15T08:32:50;10.60;99.90
52211;DHT22;38179;52.756;6.906;2022-11-15T08:35:17;10.60;99.90
52211;DHT22;38179;52.756;6.906;2022-11-15T08:37:43;10.60;99.90
52211;DHT22;38179;52.756;6.906;2022-11-15T08:40:10;10.60;99.90
52211;DHT22;38179;52.756;6.906;2022-11-15T08:42:36;10.60;99.90
52211;DHT22;38179;52.756;6.906;2022-11-15T08:45:03;10.60;99.90
52211;DHT22;38179;52.756;6.906;2022-11-15T08:47:29;10.60;99.90
52211;DHT22;38179;52.756;6.906;2022-11-15T08:49:55;10.60;99.90
52211;DHT22;38179;52.756;6.906;2022-11-15T08:52:21;10.60;99.90
52211;DHT22;38179;52.756;6.906;2022-11-15T08:54:47;10.70;99.90
52211;DHT22;38179;52.756;6.906;2022-11-15T08:57:13;10.70;99.90
52211;DHT22;38179;52.756;6.906;2022-11-15T08:59:39;10.70;99.90
52211;DHT22;38179;52.756;6.906;2022-11-15T09:02:05;10.70;99.90
52211;DHT22;38179;52.756;6.906;2022-11-15T09:04:32;10.70;99.90
52211;DHT22;38179;52.756;6.906;2022-11-15T09:06:58;10.70;99.90
52211;DHT22;38179;52.756;6.906;2022-11-15T09:09:23;10.70;99.90
52211;DHT22;38179;52.756;6.906;2022-11-15T09:11:49;10.70;99.90
52211;DHT22;38179;52.756;6.906;2022-11-15T09:14:16;10.80;99.90
52211;DHT22;38179;52.756;6.906;2022-11-15T09:16:42;10.80;99.90
52211;DHT22;38179;52.756;6.906;2022-11-15T09:19:08;10.80;99.90
52211;DHT22;38179;52.756;6.906;2022-11-15T09:21:34;10.80;99.90
52211;DHT22;38179;52.756;6.906;2022-11-15T09:23:59;10.80;99.90
52211;DHT22;38179;52.756;6.906;2022-11-15T09:26:25;10.90;99.90
52211;DHT22;38179;52.756;6.906;2022-11-15T09:28:51;10.90;99.90
52211;DHT22;38179;52.756;6.906;2022-11-15T09:31:17;10.90;99.90
52211;DHT22;38179;52.756;6.906;2022-11-15T09:33:44;10.90;99.90
52211;DHT22;38179;52.756;6.906;2022-11-15T09:36:10;11.00;99.90
52211;DHT22;38179;52.756;6.906;2022-11-15T09:38:36;10.90;99.90
52211;DHT22;38179;52.756;6.906;2022-11-15T09:46:52;10.90;99.90
52211;DHT22;38179;52.756;6.906;2022-11-15T09:49:19;10.90;99.90
52211;DHT22;38179;52.756;6.906;2022-11-15T09:51:49;10.90;99.90
52211;DHT22;38179;52.756;6.906;2022-11-15T09:54:34;10.90;99.90
52211;DHT22;38179;52.756;6.906;2022-11-15T09:59:46;10.90;99.90
52211;DHT22;38179;52.756;6.906;2022-11-15T10:04:59;10.80;99.90
52211;DHT22;38179;52.756;6.906;2022-11-15T10:07:37;10.80;99.90
52211;DHT22;38179;52.756;6.906;2022-11-15T10:13:22;10.80;99.90
52211;DHT22;38179;52.756;6.906;2022-11-15T10:15:53;10.90;99.90
52211;DHT22;38179;52.756;6.906;2022-11-15T10:18:46;11.00;99.90
52211;DHT22;38179;52.756;6.906;2022-11-15T10:21:20;11.00;99.90
52211;DHT22;38179;52.756;6.906;2022-11-15T10:23:47;11.00;99.90
52211;DHT22;38179;52.756;6.906;2022-11-15T10:26:16;11.10;99.90
52211;DHT22;38179;52.756;6.906;2022-11-15T10:28:43;11.10;99.90
52211;DHT22;38179;52.756;6.906;2022-11-15T10:31:22;11.10;99.90
52211;DHT22;38179;52.756;6.906;2022-11-15T10:33:48;11.10;99.90
52211;DHT22;38179;52.756;6.906;2022-11-15T10:36:17;11.20;99.90
52211;DHT22;38179;52.756;6.906;2022-11-15T10:43:43;11.20;99.90
52211;DHT22;38179;52.756;6.906;2022-11-15T10:46:22;11.20;99.90
52211;DHT22;38179;52.756;6.906;2022-11-15T10:48:48;11.30;99.90
52211;DHT22;38179;52.756;6.906;2022-11-15T10:51:24;11.30;99.90
52211;DHT22;38179;52.756;6.906;2022-11-15T10:53:55;11.30;99.90
52211;DHT22;38179;52.756;6.906;2022-11-15T10:56:24;11.30;99.90
52211;DHT22;38179;52.756;6.906;2022-11-15T10:58:56;11.30;99.90
52211;DHT22;38179;52.756;6.906;2022-11-15T11:01:25;11.30;99.90
52211;DHT22;38179;52.756;6.906;2022-11-15T11:06:25;11.40;99.90
52211;DHT22;38179;52.756;6.906;2022-11-15T11:09:05;11.40;99.90
52211;DHT22;38179;52.756;6.906;2022-11-15T11:11:51;11.50;99.90
52211;DHT22;38179;52.756;6.906;2022-11-15T11:14:26;11.60;99.90
52211;DHT22;38179;52.756;6.906;2022-11-15T11:17:33;11.60;99.90
52211;DHT22;38179;52.756;6.906;2022-11-15T11:19:59;11.60;99.90
52211;DHT22;38179;52.756;6.906;2022-11-15T11:25:33;11.60;99.90
52211;DHT22;38179;52.756;6.906;2022-11-15T11:44:49;11.80;99.90
52211;DHT22;38179;52.756;6.906;2022-11-15T11:47:24;11.90;99.90
52211;DHT22;38179;52.756;6.906;2022-11-15T11:50:00;11.80;99.90
52211;DHT22;38179;52.756;6.906;2022-11-15T11:52:34;11.80;99.90
52211;DHT22;38179;52.756;6.906;2022-11-15T11:55:16;11.80;99.90
52211;DHT22;38179;52.756;6.906;2022-11-15T11:58:26;11.80;99.90
52211;DHT22;38179;52.756;6.906;2022-11-15T12:00:54;11.80;99.90
52211;DHT22;38179;52.756;6.906;2022-11-15T12:06:29;11.80;99.90
52211;DHT22;38179;52.756;6.906;2022-11-15T12:08:58;11.70;99.90
52211;DHT22;38179;52.756;6.906;2022-11-15T12:11:30;11.70;99.90
52211;DHT22;38179;52.756;6.906;2022-11-15T12:14:01;11.70;99.90
52211;DHT22;38179;52.756;6.906;2022-11-15T12:16:31;11.70;99.90
52211;DHT22;38179;52.756;6.906;2022-11-15T12:19:02;11.70;99.90
52211;DHT22;38179;52.756;6.906;2022-11-15T12:21:48;11.70;99.90
52211;DHT22;38179;52.756;6.906;2022-11-15T12:24:33;11.70;99.90
52211;DHT22;38179;52.756;6.906;2022-11-15T12:27:17;11.80;99.90
52211;DHT22;38179;52.756;6.906;2022-11-15T12:29:48;11.80;99.90
52211;DHT22;38179;52.756;6.906;2022-11-15T12:32:26;11.90;99.90
52211;DHT22;38179;52.756;6.906;2022-11-15T12:34:53;11.90;99.90
52211;DHT22;38179;52.756;6.906;2022-11-15T12:37:41;12.00;99.90
52211;DHT22;38179;52.756;6.906;2022-11-15T12:40:22;12.10;99.90
52211;DHT22;38179;52.756;6.906;2022-11-15T12:45:28;12.20;99.90
52211;DHT22;38179;52.756;6.906;2022-11-15T12:50:55;12.30;99.90
52211;DHT22;38179;52.756;6.906;2022-11-15T12:58:45;12.30;99.90
52211;DHT22;38179;52.756;6.906;2022-11-15T13:06:43;12.30;99.90
52211;DHT22;38179;52.756;6.906;2022-11-15T13:12:07;12.50;99.90
52211;DHT22;38179;52.756;6.906;2022-11-15T13:19:52;12.50;99.90
52211;DHT22;38179;52.756;6.906;2022-11-15T13:22:18;12.50;99.90
52211;DHT22;38179;52.756;6.906;2022-11-15T13:25:03;12.50;99.90
52211;DHT22;38179;52.756;6.906;2022-11-15T13:27:29;12.40;99.90
52211;DHT22;38179;52.756;6.906;2022-11-15T13:29:56;12.40;99.90
52211;DHT22;38179;52.756;6.906;2022-11-15T13:32:22;12.40;99.90
52211;DHT22;38179;52.756;6.906;2022-11-15T13:34:49;12.40;99.90
52211;DHT22;38179;52.756;6.906;2022-11-15T13:39:48;12.40;99.90
52211;DHT22;38179;52.756;6.906;2022-11-15T13:42:19;12.40;99.90
52211;DHT22;38179;52.756;6.906;2022-11-15T13:44:58;12.30;99.90
52211;DHT22;38179;52.756;6.906;2022-11-15T13:47:26;12.30;99.90
52211;DHT22;38179;52.756;6.906;2022-11-15T13:49:53;12.30;99.90
52211;DHT22;38179;52.756;6.906;2022-11-15T13:52:19;12.30;99.90
52211;DHT22;38179;52.756;6.906;2022-11-15T13:55:13;12.30;99.90
52211;DHT22;38179;52.756;6.906;2022-11-15T13:57:48;12.30;99.90
52211;DHT22;38179;52.756;6.906;2022-11-15T14:02:55;12.30;99.90
52211;DHT22;38179;52.756;6.906;2022-11-15T14:05:24;12.30;99.90
52211;DHT22;38179;52.756;6.906;2022-11-15T14:07:58;12.30;99.90
52211;DHT22;38179;52.756;6.906;2022-11-15T14:10:37;12.20;99.90
52211;DHT22;38179;52.756;6.906;2022-11-15T14:13:09;12.20;99.90
52211;DHT22;38179;52.756;6.906;2022-11-15T14:15:37;12.10;99.90
52211;DHT22;38179;52.756;6.906;2022-11-15T14:18:05;12.10;99.90
52211;DHT22;38179;52.756;6.906;2022-11-15T14:20:38;12.10;99.90
52211;DHT22;38179;52.756;6.906;2022-11-15T14:23:27;12.00;99.90
52211;DHT22;38179;52.756;6.906;2022-11-15T14:25:57;12.00;99.90
52211;DHT22;38179;52.756;6.906;2022-11-15T14:30:50;11.90;99.90
52211;DHT22;38179;52.756;6.906;2022-11-15T14:33:24;11.80;99.90
52211;DHT22;38179;52.756;6.906;2022-11-15T14:35:51;11.70;99.90
52211;DHT22;38179;52.756;6.906;2022-11-15T14:38:18;11.70;99.90
52211;DHT22;38179;52.756;6.906;2022-11-15T14:40:44;11.70;99.90
52211;DHT22;38179;52.756;6.906;2022-11-15T14:43:11;11.60;99.90
52211;DHT22;38179;52.756;6.906;2022-11-15T14:45:37;11.60;99.90
52211;DHT22;38179;52.756;6.906;2022-11-15T14:48:04;11.50;99.90
52211;DHT22;38179;52.756;6.906;2022-11-15T14:50:30;11.50;99.90
52211;DHT22;38179;52.756;6.906;2022-11-15T14:52:57;11.50;99.90
52211;DHT22;38179;52.756;6.906;2022-11-15T14:55:31;11.40;99.90
52211;DHT22;38179;52.756;6.906;2022-11-15T14:57:59;11.40;99.90
52211;DHT22;38179;52.756;6.906;2022-11-15T15:00:25;11.30;99.90
52211;DHT22;38179;52.756;6.906;2022-11-15T15:02:53;11.30;99.90
52211;DHT22;38179;52.756;6.906;2022-11-15T15:05:23;11.30;99.90
52211;DHT22;38179;52.756;6.906;2022-11-15T15:07:49;11.30;99.90
52211;DHT22;38179;52.756;6.906;2022-11-15T15:10:16;11.20;99.90
52211;DHT22;38179;52.756;6.906;2022-11-15T15:12:42;11.20;99.90
52211;DHT22;38179;52.756;6.906;2022-11-15T15:15:14;11.10;99.90
52211;DHT22;38179;52.756;6.906;2022-11-15T15:17:40;11.10;99.90
52211;DHT22;38179;52.756;6.906;2022-11-15T15:20:07;11.00;99.90
52211;DHT22;38179;52.756;6.906;2022-11-15T15:22:33;11.00;99.90
52211;DHT22;38179;52.756;6.906;2022-11-15T15:24:59;11.00;99.90
52211;DHT22;38179;52.756;6.906;2022-11-15T15:27:24;10.90;99.90
52211;DHT22;38179;52.756;6.906;2022-11-15T15:29:50;10.80;99.90
52211;DHT22;38179;52.756;6.906;2022-11-15T15:32:16;10.80;99.90
52211;DHT22;38179;52.756;6.906;2022-11-15T15:34:42;10.80;99.90
52211;DHT22;38179;52.756;6.906;2022-11-15T15:39:52;10.70;99.90
52211;DHT22;38179;52.756;6.906;2022-11-15T15:42:20;10.70;99.90
52211;DHT22;38179;52.756;6.906;2022-11-15T15:44:47;10.60;99.90
52211;DHT22;38179;52.756;6.906;2022-11-15T15:47:19;10.60;99.90
52211;DHT22;38179;52.756;6.906;2022-11-15T15:49:46;10.50;99.90
52211;DHT22;38179;52.756;6.906;2022-11-15T15:52:12;10.50;99.90
52211;DHT22;38179;52.756;6.906;2022-11-15T15:54:38;10.50;99.90
52211;DHT22;38179;52.756;6.906;2022-11-15T15:57:05;10.40;99.90
52211;DHT22;38179;52.756;6.906;2022-11-15T15:59:31;10.40;99.90
52211;DHT22;38179;52.756;6.906;2022-11-15T16:01:57;10.40;99.90
52211;DHT22;38179;52.756;6.906;2022-11-15T16:04:23;10.30;99.90
52211;DHT22;38179;52.756;6.906;2022-11-15T16:06:49;10.40;99.90
52211;DHT22;38179;52.756;6.906;2022-11-15T16:09:18;10.40;99.90
52211;DHT22;38179;52.756;6.906;2022-11-15T16:12:05;10.40;99.90
52211;DHT22;38179;52.756;6.906;2022-11-15T16:14:31;10.40;99.90
52211;DHT22;38179;52.756;6.906;2022-11-15T16:16:57;10.30;99.90
52211;DHT22;38179;52.756;6.906;2022-11-15T16:19:23;10.40;99.90
52211;DHT22;38179;52.756;6.906;2022-11-15T16:21:49;10.30;99.90
52211;DHT22;38179;52.756;6.906;2022-11-15T16:24:18;10.30;99.90
52211;DHT22;38179;52.756;6.906;2022-11-15T16:26:45;10.30;99.90
52211;DHT22;38179;52.756;6.906;2022-11-15T16:29:11;10.30;99.90
52211;DHT22;38179;52.756;6.906;2022-11-15T16:31:37;10.30;99.90
52211;DHT22;38179;52.756;6.906;2022-11-15T16:34:02;10.30;99.90
52211;DHT22;38179;52.756;6.906;2022-11-15T16:36:32;10.30;99.90
52211;DHT22;38179;52.756;6.906;2022-11-15T16:38:59;10.30;99.90
52211;DHT22;38179;52.756;6.906;2022-11-15T16:41:25;10.30;99.90
52211;DHT22;38179;52.756;6.906;2022-11-15T16:43:51;10.30;99.90
52211;DHT22;38179;52.756;6.906;2022-11-15T16:46:20;10.30;99.90
52211;DHT22;38179;52.756;6.906;2022-11-15T16:48:46;10.30;99.90
52211;DHT22;38179;52.756;6.906;2022-11-15T16:51:13;10.30;99.90
52211;DHT22;38179;52.756;6.906;2022-11-15T16:53:39;10.20;99.90
52211;DHT22;38179;52.756;6.906;2022-11-15T16:56:24;10.20;99.90
52211;DHT22;38179;52.756;6.906;2022-11-15T16:58:50;10.20;99.90
52211;DHT22;38179;52.756;6.906;2022-11-15T17:01:21;10.20;99.90
52211;DHT22;38179;52.756;6.906;2022-11-15T17:03:48;10.30;99.90
52211;DHT22;38179;52.756;6.906;2022-11-15T17:06:14;10.20;99.90
52211;DHT22;38179;52.756;6.906;2022-11-15T17:08:40;10.30;99.90
52211;DHT22;38179;52.756;6.906;2022-11-15T17:11:07;10.30;99.90
52211;DHT22;38179;52.756;6.906;2022-11-15T17:13:33;10.30;99.90
52211;DHT22;38179;52.756;6.906;2022-11-15T17:16:06;10.30;99.90
52211;DHT22;38179;52.756;6.906;2022-11-15T17:18:34;10.30;99.90
52211;DHT22;38179;52.756;6.906;2022-11-15T17:21:09;10.30;99.90
52211;DHT22;38179;52.756;6.906;2022-11-15T17:23:36;10.30;99.90
52211;DHT22;38179;52.756;6.906;2022-11-15T17:26:03;10.40;99.90
52211;DHT22;38179;52.756;6.906;2022-11-15T17:28:33;10.30;99.90
52211;DHT22;38179;52.756;6.906;2022-11-15T17:31:00;10.30;99.90
52211;DHT22;38179;52.756;6.906;2022-11-15T17:33:26;10.30;99.90
52211;DHT22;38179;52.756;6.906;2022-11-15T17:36:00;10.30;99.90
52211;DHT22;38179;52.756;6.906;2022-11-15T17:38:27;10.30;99.90
52211;DHT22;38179;52.756;6.906;2022-11-15T17:41:07;10.40;99.90
52211;DHT22;38179;52.756;6.906;2022-11-15T17:43:35;10.30;99.90
52211;DHT22;38179;52.756;6.906;2022-11-15T17:46:04;10.30;99.90
52211;DHT22;38179;52.756;6.906;2022-11-15T17:48:30;10.30;99.90
52211;DHT22;38179;52.756;6.906;2022-11-15T17:51:01;10.30;99.90